createdAt,value
2018-11-26T00:00:54.257Z,5.10
2018-11-26T00:03:58.443Z,5.10
2018-11-26T00:07:02.768Z,5.20
2018-11-26T00:11:22.013Z,5.10
2018-11-26T00:14:26.203Z,5.00
2018-11-26T00:17:30.401Z,4.90
2018-11-26T00:20:34.602Z,4.90
2018-11-26T00:23:38.882Z,4.80
2018-11-26T00:26:43.208Z,4.90
2018-11-26T00:29:47.523Z,4.80
2018-11-26T00:32:52.088Z,4.80
2018-11-26T00:35:56.496Z,4.70
2018-11-26T00:39:00.802Z,4.80
2018-11-26T00:42:05.320Z,4.80
2018-11-26T00:45:11.695Z,4.80
2018-11-26T00:48:15.842Z,4.80
2018-11-26T00:51:20.058Z,4.80
2018-11-26T00:54:24.250Z,4.80
2018-11-26T00:57:29.079Z,4.90
2018-11-26T01:00:33.278Z,5.00
2018-11-26T01:03:37.493Z,5.00
2018-11-26T01:06:41.712Z,5.00
2018-11-26T01:09:45.896Z,5.10
2018-11-26T01:12:50.080Z,5.10
2018-11-26T01:15:54.260Z,5.10
2018-11-26T01:18:58.404Z,4.90
2018-11-26T01:22:03.336Z,5.00
2018-11-26T01:25:07.516Z,5.00
2018-11-26T01:28:11.694Z,4.90
2018-11-26T01:31:15.888Z,4.80
2018-11-26T01:34:20.124Z,4.80
2018-11-26T01:37:24.307Z,4.70
2018-11-26T01:40:33.949Z,4.70
2018-11-26T01:43:38.181Z,4.70
2018-11-26T01:46:42.408Z,4.70
2018-11-26T01:49:46.609Z,4.70
2018-11-26T01:52:50.781Z,4.70
2018-11-26T01:55:54.951Z,4.80
2018-11-26T01:58:59.146Z,4.80
2018-11-26T02:02:03.793Z,4.80
2018-11-26T02:05:08.788Z,4.70
2018-11-26T02:08:12.972Z,4.80
2018-11-26T02:11:17.131Z,4.70
2018-11-26T02:14:21.316Z,4.70
2018-11-26T02:17:25.508Z,4.70
2018-11-26T02:20:29.661Z,4.70
2018-11-26T02:23:33.806Z,4.80
2018-11-26T02:26:37.956Z,4.80
2018-11-26T02:29:43.169Z,4.80
2018-11-26T02:32:47.308Z,4.80
2018-11-26T02:35:51.673Z,4.80
2018-11-26T02:38:55.845Z,4.60
2018-11-26T02:42:00.014Z,4.60
2018-11-26T02:45:04.778Z,4.50
2018-11-26T02:48:08.972Z,4.50
2018-11-26T02:51:13.196Z,4.50
2018-11-26T02:54:17.390Z,4.50
2018-11-26T02:57:21.572Z,4.50
2018-11-26T03:00:25.722Z,4.50
2018-11-26T03:03:29.934Z,4.50
2018-11-26T03:06:34.106Z,4.50
2018-11-26T03:09:38.239Z,4.50
2018-11-26T03:12:42.424Z,4.40
2018-11-26T03:15:46.603Z,4.40
2018-11-26T03:18:51.700Z,4.40
2018-11-26T03:21:55.840Z,4.30
2018-11-26T03:24:59.994Z,4.30
2018-11-26T03:28:04.844Z,4.30
2018-11-26T03:31:09.071Z,4.30
2018-11-26T03:34:13.245Z,4.30
2018-11-26T03:37:17.443Z,4.30
2018-11-26T03:40:21.659Z,4.30
2018-11-26T03:43:26.374Z,4.30
2018-11-26T03:46:30.605Z,4.30
2018-11-26T03:49:34.799Z,4.30
2018-11-26T03:52:39.159Z,4.20
2018-11-26T03:55:43.361Z,4.20
2018-11-26T03:58:47.549Z,4.20
2018-11-26T04:01:51.739Z,4.20
2018-11-26T04:04:55.938Z,4.30
2018-11-26T04:08:00.071Z,4.30
2018-11-26T04:11:04.940Z,4.20
2018-11-26T04:14:09.115Z,4.30
2018-11-26T04:17:13.268Z,4.20
2018-11-26T04:20:17.461Z,4.30
2018-11-26T04:23:21.600Z,4.30
2018-11-26T04:26:25.744Z,4.20
2018-11-26T04:29:29.908Z,4.30
2018-11-26T04:32:34.059Z,4.30
2018-11-26T04:35:38.244Z,4.20
2018-11-26T04:38:42.490Z,4.20
2018-11-26T04:41:46.680Z,4.20
2018-11-26T04:44:50.869Z,4.20
2018-11-26T04:47:55.028Z,4.20
2018-11-26T04:50:59.222Z,4.20
2018-11-26T04:54:03.650Z,4.10
2018-11-26T04:57:07.827Z,4.20
2018-11-26T05:00:15.409Z,4.20
2018-11-26T05:03:19.541Z,4.20
2018-11-26T05:06:23.699Z,4.20
2018-11-26T05:09:27.857Z,4.20
2018-11-26T05:12:32.066Z,4.30
2018-11-26T05:15:36.337Z,4.40
2018-11-26T05:18:40.935Z,4.40
2018-11-26T05:21:45.148Z,4.40
2018-11-26T05:24:49.336Z,4.40
2018-11-26T05:27:53.496Z,4.30
2018-11-26T05:30:57.708Z,4.20
2018-11-26T05:34:02.215Z,4.20
2018-11-26T05:37:06.803Z,4.20
2018-11-26T05:40:14.076Z,4.30
2018-11-26T05:43:18.222Z,4.30
2018-11-26T05:46:22.374Z,4.20
2018-11-26T05:49:26.527Z,4.20
2018-11-26T05:52:30.694Z,4.20
2018-11-26T05:55:35.068Z,4.20
2018-11-26T05:58:39.234Z,4.20
2018-11-26T06:01:43.418Z,4.20
2018-11-26T06:04:48.341Z,4.10
2018-11-26T06:07:52.506Z,4.10
2018-11-26T06:10:56.949Z,4.10
2018-11-26T06:14:01.268Z,4.10
2018-11-26T06:17:05.683Z,4.10
2018-11-26T06:20:12.095Z,4.10
2018-11-26T06:23:16.554Z,4.10
2018-11-26T06:26:21.825Z,4.10
2018-11-26T06:29:26.191Z,4.20
2018-11-26T06:32:30.563Z,4.10
2018-11-26T06:35:34.879Z,4.10
2018-11-26T06:38:39.309Z,4.10
2018-11-26T06:41:43.678Z,4.10
2018-11-26T06:44:48.275Z,4.20
2018-11-26T06:47:53.057Z,4.20
2018-11-26T06:50:57.476Z,4.20
2018-11-26T06:54:01.907Z,4.10
2018-11-26T06:57:06.917Z,4.10
2018-11-26T07:00:16.662Z,4.10
2018-11-26T07:03:21.106Z,4.10
2018-11-26T07:06:26.166Z,4.10
2018-11-26T07:09:30.677Z,4.00
2018-11-26T07:12:35.185Z,4.00
2018-11-26T07:15:39.592Z,4.10
2018-11-26T07:18:43.982Z,4.10
2018-11-26T07:21:48.434Z,4.00
2018-11-26T07:24:52.879Z,4.00
2018-11-26T07:27:57.393Z,4.10
2018-11-26T07:31:02.965Z,4.10
2018-11-26T07:34:07.354Z,4.00
2018-11-26T07:37:11.734Z,4.00
2018-11-26T07:40:19.520Z,4.00
2018-11-26T07:43:23.871Z,3.90
2018-11-26T07:46:28.196Z,3.90
2018-11-26T07:49:32.977Z,3.90
2018-11-26T07:52:37.302Z,3.90
2018-11-26T07:55:42.414Z,3.80
2018-11-26T07:58:46.835Z,3.90
2018-11-26T08:01:51.330Z,3.90
2018-11-26T08:04:55.744Z,3.80
2018-11-26T08:08:00.064Z,3.80
2018-11-26T08:11:04.573Z,3.80
2018-11-26T08:14:09.501Z,3.80
2018-11-26T08:17:14.071Z,3.70
2018-11-26T08:20:18.585Z,3.70
2018-11-26T08:23:23.030Z,3.70
2018-11-26T08:26:27.486Z,3.60
2018-11-26T08:29:31.900Z,3.70
2018-11-26T08:32:36.331Z,3.70
2018-11-26T08:35:41.260Z,3.70
2018-11-26T08:38:51.827Z,3.80
2018-11-26T08:41:56.197Z,3.80
2018-11-26T08:45:06.806Z,3.80
2018-11-26T08:48:20.398Z,3.70
2018-11-26T08:51:24.794Z,3.70
2018-11-26T08:54:29.231Z,3.70
2018-11-26T08:57:33.712Z,3.70
2018-11-26T09:00:38.116Z,3.70
2018-11-26T09:03:47.606Z,3.60
2018-11-26T09:06:51.997Z,3.60
2018-11-26T09:09:56.418Z,3.50
2018-11-26T09:13:00.805Z,3.60
2018-11-26T09:16:05.359Z,3.50
2018-11-26T09:19:09.913Z,3.50
2018-11-26T09:22:14.510Z,3.60
2018-11-26T09:25:19.132Z,3.60
2018-11-26T09:28:23.521Z,3.60
2018-11-26T09:31:27.938Z,3.60
2018-11-26T09:34:32.408Z,3.50
2018-11-26T09:37:36.844Z,3.70
2018-11-26T09:40:41.427Z,3.70
2018-11-26T09:43:45.822Z,3.70
2018-11-26T09:46:50.406Z,3.60
2018-11-26T09:49:54.855Z,3.50
2018-11-26T09:52:59.245Z,3.60
2018-11-26T09:56:04.678Z,3.60
2018-11-26T09:59:08.555Z,3.60
2018-11-26T10:02:13.191Z,3.70
2018-11-26T10:05:20.041Z,3.70
2018-11-26T10:08:25.291Z,3.60
2018-11-26T10:11:29.677Z,3.40
2018-11-26T10:14:34.121Z,3.40
2018-11-26T10:17:38.558Z,3.40
2018-11-26T10:20:42.996Z,3.40
2018-11-26T10:23:47.375Z,3.40
2018-11-26T10:26:51.742Z,3.40
2018-11-26T10:29:56.119Z,3.50
2018-11-26T10:33:01.170Z,3.40
2018-11-26T10:36:05.561Z,3.40
2018-11-26T10:39:10.486Z,3.40
2018-11-26T10:42:14.880Z,3.30
2018-11-26T10:45:21.443Z,3.20
2018-11-26T10:48:25.840Z,3.10
2018-11-26T10:51:30.254Z,3.20
2018-11-26T10:54:34.591Z,3.10
2018-11-26T10:57:39.205Z,3.10
2018-11-26T11:00:49.019Z,3.10
2018-11-26T11:03:53.469Z,3.10
2018-11-26T11:06:58.068Z,3.10
2018-11-26T11:10:02.712Z,3.10
2018-11-26T11:13:08.032Z,3.10
2018-11-26T11:16:12.531Z,3.00
2018-11-26T11:19:17.145Z,3.00
2018-11-26T11:22:21.789Z,3.00
2018-11-26T11:25:26.789Z,3.00
2018-11-26T11:28:31.139Z,3.10
2018-11-26T11:31:35.817Z,3.10
2018-11-26T11:34:41.004Z,3.00
2018-11-26T11:37:46.784Z,3.00
2018-11-26T11:40:51.452Z,3.00
2018-11-26T11:43:55.977Z,3.00
2018-11-26T11:47:00.968Z,3.00
2018-11-26T11:50:07.445Z,3.00
2018-11-26T11:53:12.075Z,3.20
2018-11-26T11:56:16.820Z,3.40
2018-11-26T11:59:21.276Z,3.40
2018-11-26T12:02:28.355Z,3.20
2018-11-26T12:05:33.028Z,3.20
2018-11-26T12:08:37.895Z,3.10
2018-11-26T12:11:42.626Z,3.00
2018-11-26T12:14:47.888Z,3.00
2018-11-26T12:17:53.780Z,2.80
2018-11-26T12:20:59.144Z,2.70
2018-11-26T12:24:04.990Z,2.80
2018-11-26T12:27:09.415Z,2.80
2018-11-26T12:30:22.948Z,2.70
2018-11-26T12:33:27.435Z,2.70
2018-11-26T12:36:31.877Z,2.70
2018-11-26T12:39:36.387Z,2.70
2018-11-26T12:42:40.845Z,2.80
2018-11-26T12:45:45.268Z,2.80
2018-11-26T12:48:50.379Z,2.80
2018-11-26T12:51:54.802Z,2.90
2018-11-26T12:54:59.255Z,2.90
2018-11-26T12:58:03.998Z,2.80
2018-11-26T13:01:08.538Z,2.60
2018-11-26T13:04:12.976Z,2.60
2018-11-26T13:07:17.451Z,2.80
2018-11-26T13:10:24.377Z,2.80
2018-11-26T13:13:28.896Z,2.80
2018-11-26T13:16:33.389Z,2.70
2018-11-26T13:19:37.816Z,2.70
2018-11-26T13:22:42.515Z,2.80
2018-11-26T13:25:47.234Z,2.90
2018-11-26T13:28:52.049Z,2.60
2018-11-26T13:31:57.220Z,2.60
2018-11-26T13:35:01.888Z,2.60
2018-11-26T13:38:07.374Z,2.60
2018-11-26T13:41:12.187Z,2.40
2018-11-26T13:44:16.783Z,2.40
2018-11-26T13:47:21.823Z,2.40
2018-11-26T13:50:33.892Z,2.40
2018-11-26T13:53:38.332Z,2.30
2018-11-26T13:56:42.796Z,2.20
2018-11-26T13:59:47.392Z,2.20
2018-11-26T14:02:52.079Z,2.30
2018-11-26T14:05:56.860Z,2.30
2018-11-26T14:09:02.815Z,2.20
2018-11-26T14:12:08.710Z,2.30
2018-11-26T14:15:14.481Z,2.40
2018-11-26T14:18:19.206Z,2.30
2018-11-26T14:21:23.816Z,2.40
2018-11-26T14:24:28.632Z,2.20
2018-11-26T14:27:33.141Z,2.30
2018-11-26T14:30:38.866Z,2.30
2018-11-26T14:33:43.375Z,2.30
2018-11-26T14:36:47.679Z,2.30
2018-11-26T14:39:51.959Z,2.20
2018-11-26T14:42:56.360Z,2.30
2018-11-26T14:46:00.716Z,2.30
2018-11-26T14:49:05.563Z,2.30
2018-11-26T14:52:11.264Z,2.10
2018-11-26T14:55:21.768Z,2.20
2018-11-26T14:58:27.684Z,2.20
2018-11-26T15:01:32.507Z,2.30
2018-11-26T15:04:36.889Z,2.20
2018-11-26T15:07:41.572Z,2.10
2018-11-26T15:10:46.231Z,2.10
2018-11-26T15:13:50.866Z,2.10
2018-11-26T15:16:55.592Z,2.00
2018-11-26T15:20:00.021Z,2.10
2018-11-26T15:23:04.880Z,2.00
2018-11-26T15:26:09.726Z,2.00
2018-11-26T15:29:14.097Z,2.10
2018-11-26T15:32:18.720Z,2.10
2018-11-26T15:35:25.142Z,2.10
2018-11-26T15:38:29.707Z,2.10
2018-11-26T15:41:34.554Z,2.10
2018-11-26T15:44:39.639Z,2.10
2018-11-26T15:47:44.234Z,2.10
2018-11-26T15:50:49.783Z,2.20
2018-11-26T15:53:54.514Z,2.20
2018-11-26T15:57:00.440Z,2.20
2018-11-26T16:00:07.246Z,2.30
2018-11-26T16:03:12.704Z,2.20
2018-11-26T16:06:17.784Z,2.10
2018-11-26T16:09:23.092Z,2.10
2018-11-26T16:12:28.494Z,2.00
2018-11-26T16:15:40.342Z,2.00
2018-11-26T16:18:44.848Z,2.00
2018-11-26T16:21:49.306Z,2.00
2018-11-26T16:24:56.068Z,2.10
2018-11-26T16:28:00.553Z,2.00
2018-11-26T16:31:07.072Z,2.00
2018-11-26T16:34:11.458Z,2.00
2018-11-26T16:37:16.098Z,2.00
2018-11-26T16:40:20.621Z,2.00
2018-11-26T16:43:25.348Z,2.00
2018-11-26T16:46:31.052Z,2.00
2018-11-26T16:49:35.413Z,2.00
2018-11-26T16:52:41.381Z,2.00
2018-11-26T16:55:46.147Z,2.00
2018-11-26T16:58:50.958Z,2.00
2018-11-26T17:01:56.888Z,2.00
2018-11-26T17:05:26.024Z,2.10
2018-11-26T17:08:31.333Z,2.00
2018-11-26T17:11:36.055Z,2.00
2018-11-26T17:14:41.818Z,2.00
2018-11-26T17:17:46.494Z,2.00
2018-11-26T17:20:52.899Z,2.10
2018-11-26T17:23:57.156Z,2.00
2018-11-26T17:27:03.006Z,2.00
2018-11-26T17:30:24.572Z,2.00
2018-11-26T17:33:29.356Z,2.10
2018-11-26T17:36:37.599Z,2.10
2018-11-26T17:39:43.244Z,2.10
2018-11-26T17:42:50.729Z,2.10
2018-11-26T17:46:00.103Z,2.10
2018-11-26T17:49:08.313Z,2.10
2018-11-26T17:52:12.797Z,2.10
2018-11-26T17:55:24.100Z,2.10
2018-11-26T17:58:33.555Z,2.10
2018-11-26T18:01:45.650Z,2.10
2018-11-26T18:04:52.802Z,2.10
2018-11-26T18:08:05.245Z,2.10
2018-11-26T18:11:09.797Z,2.10
2018-11-26T18:14:16.292Z,2.10
2018-11-26T18:17:21.592Z,2.10
2018-11-26T18:20:25.961Z,2.10
2018-11-26T18:23:30.520Z,2.10
2018-11-26T18:26:36.223Z,2.20
2018-11-26T18:29:40.767Z,2.20
2018-11-26T18:32:46.744Z,2.10
2018-11-26T18:35:51.266Z,2.10
2018-11-26T18:38:55.782Z,2.10
2018-11-26T18:42:00.087Z,2.10
2018-11-26T18:45:05.654Z,2.20
2018-11-26T18:48:13.710Z,2.10
2018-11-26T18:51:18.630Z,2.10
2018-11-26T18:54:23.346Z,2.10
2018-11-26T18:57:28.795Z,2.20
2018-11-26T19:00:39.334Z,2.20
2018-11-26T19:03:44.114Z,2.20
2018-11-26T19:06:48.315Z,2.20
2018-11-26T19:09:53.036Z,2.20
2018-11-26T19:13:03.678Z,2.20
2018-11-26T19:16:11.558Z,2.20
2018-11-26T19:19:17.196Z,2.20
2018-11-26T19:22:21.648Z,2.20
2018-11-26T19:25:27.333Z,2.30
2018-11-26T19:28:31.757Z,2.20
2018-11-26T19:31:36.634Z,2.30
2018-11-26T19:34:41.348Z,2.30
2018-11-26T19:37:45.815Z,2.30
2018-11-26T19:40:50.226Z,2.30
2018-11-26T19:43:57.366Z,2.30
2018-11-26T19:47:03.256Z,2.30
2018-11-26T19:50:10.675Z,2.30
2018-11-26T19:53:15.190Z,2.30
2018-11-26T19:56:19.771Z,2.30
2018-11-26T19:59:24.643Z,2.30
2018-11-26T20:02:29.996Z,2.40
2018-11-26T20:05:48.157Z,2.40
2018-11-26T20:08:54.993Z,2.40
2018-11-26T20:11:59.442Z,2.40
2018-11-26T20:15:07.941Z,2.40
2018-11-26T20:18:12.131Z,2.40
2018-11-26T20:21:16.746Z,2.40
2018-11-26T20:24:21.359Z,2.40
2018-11-26T20:27:25.682Z,2.40
2018-11-26T20:30:30.007Z,2.40
2018-11-26T20:33:34.604Z,2.50
2018-11-26T20:36:38.940Z,2.50
2018-11-26T20:39:43.184Z,2.50
2018-11-26T20:42:50.730Z,2.50
2018-11-26T20:45:55.882Z,2.50
2018-11-26T20:49:00.232Z,2.50
2018-11-26T20:52:04.876Z,2.50
2018-11-26T20:55:13.311Z,2.50
2018-11-26T20:58:17.667Z,2.50
2018-11-26T21:01:21.903Z,2.50
2018-11-26T21:04:26.324Z,2.60
2018-11-26T21:07:30.641Z,2.50
2018-11-26T21:10:35.124Z,2.60
2018-11-26T21:13:39.375Z,2.60
2018-11-26T21:16:44.130Z,2.60
2018-11-26T21:19:49.840Z,2.60
2018-11-26T21:22:53.802Z,2.60
2018-11-26T21:25:59.753Z,2.60
2018-11-26T21:29:04.293Z,2.60
2018-11-26T21:32:08.540Z,2.60
2018-11-26T21:35:15.269Z,2.70
2018-11-26T21:38:19.462Z,2.70
2018-11-26T21:41:23.688Z,2.70
2018-11-26T21:44:28.044Z,2.70
2018-11-26T21:47:32.454Z,2.60
2018-11-26T21:50:37.325Z,2.60
2018-11-26T21:53:41.753Z,2.60
2018-11-26T21:56:46.117Z,2.50
2018-11-26T21:59:50.947Z,2.50
2018-11-26T22:02:56.468Z,2.40
2018-11-26T22:06:00.840Z,2.50
2018-11-26T22:09:09.284Z,2.40
2018-11-26T22:12:13.667Z,2.40
2018-11-26T22:15:18.126Z,2.40
2018-11-26T22:18:23.810Z,2.40
2018-11-26T22:21:28.244Z,2.30
2018-11-26T22:24:32.577Z,2.30
2018-11-26T22:27:37.205Z,2.30
2018-11-26T22:30:41.761Z,2.20
2018-11-26T22:33:46.177Z,2.20
2018-11-26T22:36:50.704Z,2.20
2018-11-26T22:39:55.626Z,2.20
2018-11-26T22:42:59.845Z,2.20
2018-11-26T22:46:04.354Z,2.20
2018-11-26T22:49:08.834Z,2.20
2018-11-26T22:52:13.147Z,2.20
2018-11-26T22:55:17.758Z,2.10
2018-11-26T22:58:22.160Z,2.10
2018-11-26T23:01:26.549Z,2.10
2018-11-26T23:04:31.359Z,2.00
2018-11-26T23:07:35.923Z,2.00
2018-11-26T23:10:41.387Z,2.00
2018-11-26T23:13:46.547Z,2.00
2018-11-26T23:16:53.695Z,2.00
2018-11-26T23:19:58.110Z,2.00
2018-11-26T23:23:05.200Z,2.00
2018-11-26T23:26:09.502Z,2.00
2018-11-26T23:29:13.761Z,2.00
2018-11-26T23:32:17.982Z,1.90
2018-11-26T23:35:22.241Z,1.90
2018-11-26T23:38:26.460Z,2.00
2018-11-26T23:41:30.703Z,2.00
2018-11-26T23:44:35.101Z,2.00
2018-11-26T23:47:39.425Z,2.00
2018-11-26T23:50:43.694Z,1.90
2018-11-26T23:53:47.939Z,1.90
2018-11-26T23:56:52.211Z,1.90
2018-11-26T23:59:56.577Z,1.90
